Time;durP1;ratioP1;P1;durP2;ratioP2;P2;SDS_P1;SDS_P2;PMS_P1;PMS_P2;Temp;Humidity;BMP_temperature;BMP_pressure;BME280_temperature;BME280_humidity;BME280_pressure;Samples;Min_cycle;Max_cycle;Signal;HPM_P1;HPM_P2
2023/06/26 00:03:49;;;;;;;5.32;3.15;;;;;;;22.53;51.16;100441.06;20974511;28;20159;-79
2023/06/26 00:14:12;;;;;;;7.20;3.45;;;;;;;22.06;54.59;100430.28;20973352;28;20094;-79
2023/06/26 00:24:36;;;;;;;5.63;3.42;;;;;;;22.15;54.32;100426.41;20970321;28;20063;-79
2023/06/26 00:34:58;;;;;;;5.97;3.80;;;;;;;22.05;55.51;100416.94;20961157;28;20052;-78
2023/06/26 00:45:23;;;;;;;5.47;3.80;;;;;;;21.92;58.62;100424.53;20958265;28;20041;-78
2023/06/26 00:55:47;;;;;;;5.82;3.80;;;;;;;21.92;61.37;100404.84;20965670;28;20505;-78
2023/06/26 01:06:13;;;;;;;7.05;4.53;;;;;;;21.73;65.95;100400.13;20970642;28;20148;-79
2023/06/26 01:16:37;;;;;;;6.75;4.05;;;;;;;21.82;66.13;100402.47;20965474;28;20102;-78
2023/06/26 01:27:04;;;;;;;5.70;4.32;;;;;;;21.77;69.37;100395.53;20995313;28;20075;-78
2023/06/26 01:37:27;;;;;;;8.30;4.38;;;;;;;21.60;75.01;100397.91;20972776;28;20036;-77
2023/06/26 01:47:53;;;;;;;6.82;4.78;;;;;;;21.60;78.51;100393.44;20972757;28;20062;-79
2023/06/26 01:58:17;;;;;;;6.68;4.38;;;;;;;21.17;90.14;100398.53;20979405;28;20080;-78
2023/06/26 02:08:41;;;;;;;7.63;4.63;;;;;;;21.33;89.62;100400.63;20993841;28;20044;-79
2023/06/26 02:19:04;;;;;;;6.97;4.82;;;;;;;21.26;91.68;100395.56;20970654;28;20132;-79
2023/06/26 02:29:28;;;;;;;7.60;4.80;;;;;;;21.36;97.51;100375.50;20996690;28;20044;-78
2023/06/26 02:39:51;;;;;;;8.98;5.45;;;;;;;21.32;99.72;100379.22;20965862;28;20052;-79
2023/06/26 02:50:15;;;;;;;9.05;5.38;;;;;;;21.36;100.00;100371.00;21016612;28;20668;-78
2023/06/26 03:00:56;;;;;;;7.43;5.25;;;;;;;21.41;100.00;100371.72;20998627;28;20106;-77
2023/06/26 03:11:21;;;;;;;10.43;5.70;;;;;;;21.50;100.00;100375.00;20979723;28;20044;-78
2023/06/26 03:21:45;;;;;;;7.80;4.68;;;;;;;21.58;100.00;100378.31;20994390;28;20396;-78
2023/06/26 03:32:11;;;;;;;7.88;4.32;;;;;;;21.93;100.00;100371.63;20985830;28;20060;-77
2023/06/26 03:42:33;;;;;;;7.28;4.13;;;;;;;22.33;100.00;100357.56;20945833;28;20045;-78
2023/06/26 03:52:59;;;;;;;9.43;4.10;;;;;;;22.63;100.00;100369.84;21022860;28;20049;-78
2023/06/26 04:03:21;;;;;;;7.72;4.18;;;;;;;22.99;100.00;100373.72;21000916;28;20052;-79
2023/06/26 04:13:47;;;;;;;7.07;3.80;;;;;;;23.50;100.00;100364.38;21049607;28;20048;-79
2023/06/26 04:24:09;;;;;;;10.63;4.57;;;;;;;24.13;100.00;100359.72;21031862;28;20143;-78
2023/06/26 04:34:36;;;;;;;6.82;3.45;;;;;;;24.82;100.00;100357.31;21013908;28;20072;-79
2023/06/26 04:44:58;;;;;;;5.97;3.95;;;;;;;25.46;100.00;100364.91;21026609;28;20052;-79
2023/06/26 04:55:23;;;;;;;5.95;3.55;;;;;;;26.12;100.00;100376.69;20938312;28;20047;-79
2023/06/26 05:05:46;;;;;;;5.85;3.35;;;;;;;26.84;100.00;100376.25;21014462;28;20393;-79
2023/06/26 05:16:11;;;;;;;6.43;3.13;;;;;;;27.63;81.34;100382.44;20979337;28;20389;-80
2023/06/26 05:26:34;;;;;;;7.05;3.20;;;;;;;28.48;70.84;100386.09;20971830;28;20106;-79
2023/06/26 05:37:00;;;;;;;6.95;3.10;;;;;;;28.73;62.42;100382.63;20968428;28;20148;-77
2023/06/26 05:47:23;;;;;;;5.00;3.20;;;;;;;29.83;53.41;100384.22;20951889;28;20051;-80
2023/06/26 05:57:49;;;;;;;9.20;3.17;;;;;;;30.32;48.14;100389.81;20985317;28;20056;-80
2023/06/26 06:08:12;;;;;;;9.33;3.20;;;;;;;31.34;44.30;100387.66;21003375;28;20111;-81
2023/06/26 06:18:36;;;;;;;5.88;3.17;;;;;;;32.29;40.79;100405.69;20964322;28;20113;-80
2023/06/26 06:28:59;;;;;;;5.05;2.58;;;;;;;33.32;36.42;100399.88;21006332;28;20527;-79
2023/06/26 06:39:24;;;;;;;5.68;2.85;;;;;;;33.52;33.90;100396.28;21025399;28;20548;-80
2023/06/26 06:49:47;;;;;;;8.33;3.60;;;;;;;32.90;34.15;100387.88;20980957;28;20060;-80
2023/06/26 07:00:14;;;;;;;5.85;2.95;;;;;;;33.98;33.88;100397.81;20977902;28;20381;-80
2023/06/26 07:10:37;;;;;;;7.13;3.30;;;;;;;34.50;32.59;100390.44;20961640;28;20493;-80
2023/06/26 07:21:01;;;;;;;6.45;3.08;;;;;;;34.98;32.35;100386.00;21019356;28;20559;-81
2023/06/26 07:31:23;;;;;;;6.97;3.20;;;;;;;35.34;31.87;100397.34;21024779;28;20087;-82
2023/06/26 07:41:47;;;;;;;7.13;3.60;;;;;;;35.58;31.64;100391.41;20989151;28;20048;-81
2023/06/26 07:52:11;;;;;;;5.20;3.17;;;;;;;36.01;31.48;100396.44;20975801;28;20044;-82
2023/06/26 08:02:35;;;;;;;5.13;3.40;;;;;;;35.90;30.74;100402.97;20956554;28;20064;-80
2023/06/26 08:12:58;;;;;;;9.30;3.73;;;;;;;35.45;31.49;100399.94;20958569;28;20110;-81
2023/06/26 08:23:24;;;;;;;5.63;3.33;;;;;;;35.58;32.43;100419.72;20990767;28;20569;-78
2023/06/26 08:33:46;;;;;;;7.72;3.38;;;;;;;35.31;35.61;100420.47;20980692;28;20144;-80
2023/06/26 08:44:11;;;;;;;5.40;3.33;;;;;;;35.66;37.74;100421.75;20947690;28;20756;-77
2023/06/26 08:54:35;;;;;;;;;;;;;;;35.80;38.55;100438.72;20944527;28;20048;-81
2023/06/26 09:05:00;;;;;;;10.82;3.70;;;;;;;35.82;40.21;100441.31;20939752;28;19925;-82
2023/06/26 09:15:22;;;;;;;5.17;3.57;;;;;;;36.05;39.71;100450.09;20967044;28;20053;-80
2023/06/26 09:25:49;;;;;;;5.55;3.00;;;;;;;36.13;38.86;100450.22;20938727;28;20553;-82
2023/06/26 09:36:21;;;;;;;7.28;3.55;;;;;;;36.51;38.36;100444.66;20962683;28;20053;-80
2023/06/26 09:46:48;;;;;;;7.97;3.20;;;;;;;37.08;36.82;100440.78;20930243;28;20040;-80
2023/06/26 09:57:11;;;;;;;5.55;3.13;;;;;;;37.36;34.41;100440.75;20967319;28;20052;-78
2023/06/26 10:07:40;;;;;;;8.70;3.53;;;;;;;37.30;32.84;100442.25;20949327;28;20052;-80
2023/06/26 10:18:04;;;;;;;4.10;3.10;;;;;;;36.92;32.12;100425.94;20950416;28;20094;-79
2023/06/26 10:28:25;;;;;;;8.18;3.75;;;;;;;36.44;32.40;100429.75;20963097;28;20965;-78
2023/06/26 10:38:53;;;;;;;9.13;4.13;;;;;;;36.56;31.43;100413.94;20964819;28;20102;-80
2023/06/26 10:49:18;;;;;;;8.38;3.40;;;;;;;36.69;31.05;100417.25;20959075;28;20094;-79
2023/06/26 10:59:42;;;;;;;7.68;3.90;;;;;;;36.94;31.05;100413.78;20945907;28;20044;-79
2023/06/26 11:10:10;;;;;;;7.68;3.50;;;;;;;37.55;30.39;100410.28;20987278;28;20190;-79
2023/06/26 11:20:33;;;;;;;7.13;3.58;;;;;;;37.59;30.22;100403.50;20975303;28;20066;-78
2023/06/26 11:30:58;;;;;;;7.70;3.60;;;;;;;37.30;30.67;100403.69;20928528;28;20076;-79
2023/06/26 11:41:21;;;;;;;7.50;3.80;;;;;;;36.92;30.71;100425.94;20960070;28;20052;-79
2023/06/26 11:51:48;;;;;;;6.53;3.30;;;;;;;36.37;31.85;100422.25;20963509;28;20049;-79
2023/06/26 12:02:14;;;;;;;6.80;3.72;;;;;;;36.26;32.14;100421.44;20953523;28;20052;-78
2023/06/26 12:12:39;;;;;;;6.20;3.85;;;;;;;35.91;32.94;100418.44;20985620;28;20107;-78
2023/06/26 12:23:02;;;;;;;5.57;3.65;;;;;;;35.80;32.92;100421.34;21021539;28;20514;-78
2023/06/26 12:33:28;;;;;;;7.82;3.92;;;;;;;35.90;32.19;100425.84;21009508;28;20049;-78
2023/06/26 12:43:56;;;;;;;7.55;3.75;;;;;;;36.39;31.50;100414.72;20968968;28;20059;-79
2023/06/26 12:54:21;;;;;;;6.70;3.85;;;;;;;36.32;32.32;100418.09;20977281;28;20095;-79
2023/06/26 13:04:44;;;;;;;6.13;3.45;;;;;;;36.81;32.69;100410.53;20994637;28;20537;-79
2023/06/26 13:15:10;;;;;;;7.70;3.80;;;;;;;36.86;32.77;100399.91;20946548;28;20048;-80
2023/06/26 13:25:33;;;;;;;7.47;4.00;;;;;;;36.47;33.10;100406.59;20958498;28;20059;-80
2023/06/26 13:35:57;;;;;;;8.48;3.90;;;;;;;36.59;32.50;100405.38;20997599;28;20056;-79
2023/06/26 13:46:19;;;;;;;8.35;4.28;;;;;;;36.13;33.24;100395.25;20960397;28;20492;-80
2023/06/26 13:56:45;;;;;;;7.75;4.15;;;;;;;35.97;34.24;100392.25;20980994;28;20493;-79
2023/06/26 14:07:08;;;;;;;8.18;4.20;;;;;;;36.10;34.10;100390.06;20976733;28;20062;-80
2023/06/26 14:17:33;;;;;;;9.82;4.50;;;;;;;36.01;34.33;100399.19;21001985;28;20044;-77
2023/06/26 14:27:59;;;;;;;8.65;4.55;;;;;;;36.20;34.69;100400.03;20972383;28;20064;-77
2023/06/26 14:38:23;;;;;;;9.00;4.72;;;;;;;36.25;34.92;100385.81;20937107;28;20508;-80
2023/06/26 14:48:46;;;;;;;8.43;4.23;;;;;;;36.07;35.07;100379.34;21007654;28;20449;-79
2023/06/26 14:59:12;;;;;;;6.97;3.83;;;;;;;35.44;35.90;100385.34;21005375;28;20044;-80
2023/06/26 15:09:34;;;;;;;7.40;4.30;;;;;;;34.81;36.88;100383.94;21008876;28;20093;-80
2023/06/26 15:19:59;;;;;;;7.03;4.13;;;;;;;34.06;38.07;100375.22;21022960;28;20056;-80
2023/06/26 15:30:22;;;;;;;11.23;4.47;;;;;;;33.44;39.32;100376.91;20984231;28;20059;-80
2023/06/26 15:40:46;;;;;;;9.40;4.05;;;;;;;32.75;40.92;100378.25;20987875;28;20070;-79
2023/06/26 15:51:10;;;;;;;8.88;4.68;;;;;;;32.12;42.32;100387.00;20991604;28;20500;-80
2023/06/26 16:01:35;;;;;;;11.02;5.47;;;;;;;31.50;45.94;100390.97;20982522;28;20049;-80
2023/06/26 16:11:57;;;;;;;17.05;6.80;;;;;;;31.09;48.41;100390.50;20973144;28;20040;-79
2023/06/26 16:22:21;;;;;;;14.55;5.05;;;;;;;30.62;58.66;100394.00;20954606;28;20098;-79
2023/06/26 16:32:44;;;;;;;10.18;4.70;;;;;;;30.27;61.06;100394.69;20977620;28;20071;-79
2023/06/26 16:43:08;;;;;;;13.48;5.80;;;;;;;29.98;62.65;100390.47;20939417;28;20040;-79
2023/06/26 16:53:30;;;;;;;11.57;5.55;;;;;;;29.59;65.34;100394.97;20962056;28;20094;-78
2023/06/26 17:03:55;;;;;;;10.73;5.13;;;;;;;29.31;66.68;100397.81;20961295;28;20056;-78
2023/06/26 17:14:17;;;;;;;8.55;5.60;;;;;;;29.08;65.67;100402.06;20966246;28;20041;-78
2023/06/26 17:24:42;;;;;;;10.55;5.70;;;;;;;28.87;65.14;100403.50;20965999;28;20052;-78
2023/06/26 17:35:07;;;;;;;11.30;5.90;;;;;;;28.62;67.45;100412.31;20989365;28;20044;-80
2023/06/26 17:45:33;;;;;;;12.10;5.28;;;;;;;28.39;70.17;100416.53;20962949;28;20053;-78
2023/06/26 17:55:56;;;;;;;12.25;5.32;;;;;;;28.10;75.91;100414.75;20972448;28;20136;-78
2023/06/26 18:06:21;;;;;;;8.48;5.22;;;;;;;27.97;77.36;100424.63;20984781;28;20053;-79
2023/06/26 18:16:44;;;;;;;9.82;5.80;;;;;;;27.77;82.49;100437.56;20957850;28;20068;-78
2023/06/26 18:27:08;;;;;;;12.25;7.22;;;;;;;27.61;85.43;100442.19;20991151;28;20049;-77
2023/06/26 18:37:31;;;;;;;11.15;6.72;;;;;;;27.48;88.60;100446.56;20954212;28;20037;-78
2023/06/26 18:47:56;;;;;;;10.25;6.05;;;;;;;27.43;92.16;100466.78;20964976;28;20053;-77
2023/06/26 18:58:18;;;;;;;12.07;6.63;;;;;;;27.34;95.09;100470.91;20974122;28;20083;-79
2023/06/26 19:08:43;;;;;;;14.70;6.88;;;;;;;27.24;97.70;100473.25;20959127;28;20052;-79
2023/06/26 19:19:05;;;;;;;11.45;6.20;;;;;;;27.14;98.98;100487.44;20977735;28;20094;-79
2023/06/26 19:29:30;;;;;;;12.32;5.90;;;;;;;27.02;100.00;100490.84;20985518;28;20116;-78
2023/06/26 19:39:52;;;;;;;10.63;6.05;;;;;;;26.80;100.00;100485.72;20970157;28;20404;-78
2023/06/26 19:50:17;;;;;;;9.98;6.18;;;;;;;26.75;100.00;100485.13;20996705;28;20048;-77
2023/06/26 20:00:40;;;;;;;10.50;6.43;;;;;;;26.67;100.00;100487.38;21011032;28;20052;-78
2023/06/26 20:11:04;;;;;;;10.63;6.40;;;;;;;26.55;100.00;100489.81;21005432;28;20151;-78
2023/06/26 20:21:27;;;;;;;13.00;6.60;;;;;;;26.47;100.00;100494.75;20982015;28;20048;-78
2023/06/26 20:31:51;;;;;;;11.73;5.82;;;;;;;26.40;100.00;100497.88;20937541;28;20439;-78
2023/06/26 20:42:16;;;;;;;10.88;6.43;;;;;;;26.28;100.00;100487.72;20977091;28;20056;-78
2023/06/26 20:52:45;;;;;;;12.00;6.90;;;;;;;26.13;100.00;100486.66;21048523;28;20071;-79
2023/06/26 21:03:08;;;;;;;12.32;5.88;;;;;;;26.08;100.00;100486.03;20985794;28;20550;-78
2023/06/26 21:13:33;;;;;;;12.65;6.70;;;;;;;26.04;100.00;100481.75;20994154;28;20048;-78
2023/06/26 21:23:56;;;;;;;11.02;7.03;;;;;;;25.94;100.00;100475.06;21059928;28;20675;-80
2023/06/26 21:34:21;;;;;;;11.15;6.53;;;;;;;25.93;100.00;100484.16;20981524;28;20067;-80
2023/06/26 21:44:44;;;;;;;12.30;6.25;;;;;;;25.79;100.00;100476.75;20996203;28;20052;-80
2023/06/26 21:54:48;;;;;;;11.50;6.88;;;;;;;25.76;100.00;100480.47;20939568;28;20140;-79
2023/06/26 22:05:13;;;;;;;12.05;6.72;;;;;;;25.76;100.00;100477.78;20996338;28;20048;-80
2023/06/26 22:15:37;;;;;;;12.32;7.05;;;;;;;25.78;100.00;100485.81;20997655;28;20048;-79
2023/06/26 22:26:00;;;;;;;14.43;7.13;;;;;;;25.72;100.00;100494.25;20962011;28;20162;-78
2023/06/26 22:36:25;;;;;;;12.18;7.03;;;;;;;25.64;100.00;100499.16;20944881;28;20060;-79
2023/06/26 22:46:48;;;;;;;14.20;6.90;;;;;;;25.59;100.00;100476.91;20977252;28;20040;-79
2023/06/26 22:57:13;;;;;;;13.77;7.47;;;;;;;25.53;100.00;100477.19;20982087;28;20074;-78
2023/06/26 23:07:29;;;;;;;11.93;6.93;;;;;;;25.41;100.00;100466.00;21061639;28;20052;-79
2023/06/26 23:17:55;;;;;;;13.18;8.00;;;;;;;25.30;100.00;100462.97;21044931;28;20040;-79
2023/06/26 23:28:17;;;;;;;13.93;7.32;;;;;;;25.23;100.00;100456.13;20991838;28;20048;-79
2023/06/26 23:38:42;;;;;;;15.48;7.18;;;;;;;25.17;100.00;100458.25;20987370;28;20040;-81
2023/06/26 23:49:05;;;;;;;13.65;6.75;;;;;;;24.97;100.00;100470.03;21004774;28;20052;-81
2023/06/26 23:59:31;;;;;;;16.35;7.07;;;;;;;24.85;100.00;100471.47;21000177;28;20132;-79
